Time;durP1;ratioP1;P1;durP2;ratioP2;P2;SDS_P1;SDS_P2;PMS_P1;PMS_P2;Temp;Humidity;BMP_temperature;BMP_pressure;BME280_temperature;BME280_humidity;BME280_pressure;Samples;Min_cycle;Max_cycle;Signal;HPM_P1;HPM_P2
2023/03/06 00:00:36;;;;;;;9.67;1.60;;;2.90;99.90;;;;;;5064831;28;20512;-69
2023/03/06 00:03:02;;;;;;;5.32;1.42;;;2.90;99.90;;;;;;5063539;28;20431;-69
2023/03/06 00:05:28;;;;;;;3.75;1.20;;;3.10;99.90;;;;;;5066132;28;20424;-69
2023/03/06 00:07:53;;;;;;;11.05;2.70;;;3.00;99.90;;;;;;5067427;28;20410;-69
2023/03/06 00:10:25;;;;;;;4.73;1.23;;;3.10;99.90;;;;;;5063260;28;20438;-69
2023/03/06 00:12:56;;;;;;;6.43;2.42;;;3.00;99.90;;;;;;5065704;28;20467;-69
2023/03/06 00:15:23;;;;;;;6.00;1.90;;;3.30;99.90;;;;;;5065370;28;20416;-68
2023/03/06 00:17:49;;;;;;;5.03;1.88;;;3.20;99.90;;;;;;5062265;28;20454;-69
2023/03/06 00:20:16;;;;;;;6.93;1.87;;;3.30;99.90;;;;;;5066349;28;20423;-68
2023/03/06 00:22:42;;;;;;;4.35;1.27;;;3.10;99.90;;;;;;5064157;28;20423;-68
2023/03/06 00:25:13;;;;;;;5.03;1.48;;;3.10;99.90;;;;;;5065657;28;20415;-68
2023/03/06 00:27:39;;;;;;;5.28;2.08;;;3.00;99.90;;;;;;5068068;28;20751;-69
2023/03/06 00:30:06;;;;;;;9.03;2.40;;;3.10;99.90;;;;;;5067328;28;21267;-69
2023/03/06 00:32:31;;;;;;;6.97;1.70;;;2.90;99.90;;;;;;5068028;28;20865;-69
2023/03/06 00:34:57;;;;;;;6.13;1.77;;;3.00;99.90;;;;;;5067435;28;20455;-69
2023/03/06 00:37:24;;;;;;;4.77;1.60;;;2.80;99.90;;;;;;5067265;28;20478;-69
2023/03/06 00:39:50;;;;;;;6.50;1.57;;;3.00;99.90;;;;;;5067663;28;20415;-69
2023/03/06 00:42:17;;;;;;;4.30;1.15;;;3.10;99.90;;;;;;5070612;28;20481;-68
2023/03/06 00:44:43;;;;;;;7.93;2.13;;;2.90;99.90;;;;;;5067409;28;20952;-68
2023/03/06 00:47:10;;;;;;;4.45;1.13;;;3.10;99.90;;;;;;5065039;28;20485;-70
2023/03/06 00:49:35;;;;;;;6.45;1.60;;;3.20;99.90;;;;;;5069087;28;20416;-69
2023/03/06 00:52:01;;;;;;;4.53;1.40;;;3.10;99.90;;;;;;5056757;28;20424;-68
2023/03/06 00:54:27;;;;;;;4.85;2.00;;;3.20;99.90;;;;;;5067958;28;20821;-69
2023/03/06 00:56:52;;;;;;;5.10;1.23;;;3.00;99.90;;;;;;5069063;28;20447;-69
2023/03/06 00:59:18;;;;;;;5.80;1.73;;;3.00;99.90;;;;;;5051808;28;20444;-71
2023/03/06 01:01:44;;;;;;;5.43;1.33;;;3.20;99.90;;;;;;5065033;28;20464;-69
2023/03/06 01:04:09;;;;;;;6.18;2.00;;;3.00;99.90;;;;;;5066844;28;20427;-69
2023/03/06 01:06:35;;;;;;;4.47;1.25;;;3.10;99.90;;;;;;5069794;28;20456;-69
2023/03/06 01:09:02;;;;;;;7.50;1.87;;;3.10;99.90;;;;;;5068827;28;20423;-69
2023/03/06 01:11:28;;;;;;;6.28;1.30;;;3.30;99.90;;;;;;5064920;28;20420;-69
2023/03/06 01:13:54;;;;;;;5.65;1.60;;;3.20;99.90;;;;;;5068976;28;20426;-69
2023/03/06 01:16:20;;;;;;;3.15;1.08;;;3.30;99.90;;;;;;5066949;28;20411;-69
2023/03/06 01:18:46;;;;;;;3.25;1.48;;;3.30;99.90;;;;;;5069387;28;20415;-70
2023/03/06 01:21:12;;;;;;;3.85;1.33;;;3.30;99.90;;;;;;5048531;28;20434;-69
2023/03/06 01:23:39;;;;;;;5.55;1.40;;;3.30;99.90;;;;;;5068461;28;20432;-69
2023/03/06 01:26:05;;;;;;;4.18;1.40;;;3.30;99.90;;;;;;5067282;28;20427;-69
2023/03/06 01:28:32;;;;;;;2.40;1.20;;;3.30;99.90;;;;;;5067884;28;20607;-69
2023/03/06 01:31:00;;;;;;;4.73;1.50;;;3.10;99.90;;;;;;5067509;28;20423;-70
2023/03/06 01:33:26;;;;;;;4.43;1.00;;;2.90;99.90;;;;;;5068652;28;20769;-69
2023/03/06 01:35:52;;;;;;;1.95;0.90;;;3.00;99.90;;;;;;5068129;28;20426;-69
2023/03/06 01:38:17;;;;;;;2.67;0.88;;;2.90;99.90;;;;;;5067948;28;20419;-70
2023/03/06 01:40:43;;;;;;;3.30;0.90;;;3.10;99.90;;;;;;5068691;28;20922;-70
2023/03/06 01:43:24;;;;;;;3.60;1.10;;;2.90;99.90;;;;;;5062025;28;20435;-69
2023/03/06 01:45:50;;;;;;;4.40;1.10;;;3.00;99.90;;;;;;5066990;28;20423;-70
2023/03/06 01:48:19;;;;;;;4.65;0.82;;;3.10;99.90;;;;;;5067152;28;20431;-69
2023/03/06 01:50:45;;;;;;;6.38;1.20;;;3.10;99.90;;;;;;5066696;28;20902;-68
2023/03/06 01:53:11;;;;;;;2.70;0.93;;;3.10;99.90;;;;;;5064580;28;20506;-69
2023/03/06 01:55:37;;;;;;;5.30;1.00;;;3.00;99.90;;;;;;5067561;28;20416;-68
2023/03/06 01:58:07;;;;;;;3.25;0.80;;;3.20;99.90;;;;;;5054743;28;20425;-68
2023/03/06 02:00:33;;;;;;;2.58;1.13;;;3.10;99.90;;;;;;5060571;28;20423;-69
2023/03/06 02:03:01;;;;;;;4.03;0.98;;;3.30;99.90;;;;;;5065231;28;20930;-69
2023/03/06 02:05:27;;;;;;;4.07;1.30;;;3.20;99.90;;;;;;5065892;28;20419;-69
2023/03/06 02:07:53;;;;;;;1.77;0.80;;;3.30;99.90;;;;;;5062352;28;20489;-69
2023/03/06 02:10:20;;;;;;;2.35;0.82;;;3.40;99.90;;;;;;5066633;28;21276;-70
2023/03/06 02:12:48;;;;;;;6.00;1.35;;;3.20;99.90;;;;;;5064014;28;20526;-69
2023/03/06 02:15:16;;;;;;;4.63;1.50;;;3.10;99.90;;;;;;5067230;28;20494;-69
2023/03/06 02:17:44;;;;;;;2.88;1.15;;;3.20;99.90;;;;;;5067515;28;20416;-69
2023/03/06 02:20:16;;;;;;;2.28;0.98;;;3.10;99.90;;;;;;5049308;28;20510;-69
2023/03/06 02:23:00;;;;;;;3.20;0.90;;;3.10;99.90;;;;;;5064312;28;20448;-69
2023/03/06 02:25:42;;;;;;;2.40;1.00;;;3.40;99.90;;;;;;5061195;28;20427;-69
2023/03/06 02:28:10;;;;;;;2.65;1.00;;;3.30;99.90;;;;;;5063942;28;21154;-69
2023/03/06 02:30:36;;;;;;;4.22;1.42;;;3.40;99.90;;;;;;5067997;28;20485;-69
2023/03/06 02:33:03;;;;;;;4.03;1.10;;;3.30;99.90;;;;;;5063685;28;20427;-69
2023/03/06 02:35:32;;;;;;;3.08;1.83;;;3.40;99.90;;;;;;5067044;28;20423;-69
2023/03/06 02:38:02;;;;;;;3.40;0.93;;;3.40;99.90;;;;;;5063004;28;20431;-69
2023/03/06 02:40:27;;;;;;;2.55;0.82;;;3.40;99.90;;;;;;5063334;28;20479;-69
2023/03/06 03:01:18;;;;;;;1.83;0.50;;;3.50;99.90;;;;;;5059226;28;20496;-69
2023/03/06 03:03:44;;;;;;;0.70;0.30;;;3.10;99.90;;;;;;5064708;28;20866;-69
2023/03/06 03:06:10;;;;;;;0.40;0.40;;;2.70;99.90;;;;;;5065181;28;20781;-70
2023/03/06 03:08:36;;;;;;;0.60;0.40;;;2.20;99.90;;;;;;5066720;28;20760;-68
2023/03/06 03:11:02;;;;;;;0.90;0.57;;;2.20;99.90;;;;;;5062596;28;22104;-68
2023/03/06 03:13:28;;;;;;;0.60;0.40;;;2.20;99.90;;;;;;5065670;28;20427;-68
2023/03/06 03:16:09;;;;;;;0.77;0.50;;;2.10;99.90;;;;;;5064443;28;20515;-69
2023/03/06 03:18:35;;;;;;;0.65;0.40;;;2.00;99.90;;;;;;5047952;28;20463;-69
2023/03/06 03:21:05;;;;;;;0.50;0.50;;;2.10;99.90;;;;;;5066429;28;20787;-69
2023/03/06 03:23:31;;;;;;;0.70;0.60;;;2.00;99.90;;;;;;5064182;28;20508;-69
2023/03/06 03:26:05;;;;;;;1.60;0.60;;;1.90;99.90;;;;;;5064975;28;20522;-69
2023/03/06 03:28:31;;;;;;;0.50;0.50;;;1.80;99.90;;;;;;5041994;28;20416;-68
2023/03/06 03:31:02;;;;;;;2.27;1.17;;;1.90;99.90;;;;;;5064189;28;21002;-69
2023/03/06 03:33:28;;;;;;;0.60;0.60;;;1.90;99.90;;;;;;5063570;28;20833;-70
2023/03/06 03:35:58;;;;;;;1.15;0.50;;;2.00;99.90;;;;;;5065784;28;20897;-69
2023/03/06 03:38:24;;;;;;;0.95;0.50;;;1.90;99.90;;;;;;5068076;28;20477;-69
2023/03/06 03:40:50;;;;;;;2.08;1.00;;;1.80;99.90;;;;;;5064877;28;20420;-69
2023/03/06 03:43:16;;;;;;;1.15;0.70;;;1.90;99.90;;;;;;5064879;28;20930;-69
2023/03/06 03:45:41;;;;;;;1.17;0.55;;;1.90;99.90;;;;;;5063738;28;20411;-68
2023/03/06 03:48:07;;;;;;;1.50;0.40;;;1.90;99.90;;;;;;5063262;28;20431;-68
2023/03/06 03:50:33;;;;;;;2.05;0.55;;;2.00;99.90;;;;;;5064596;28;20890;-68
2023/03/06 03:52:59;;;;;;;0.93;0.60;;;1.90;99.90;;;;;;5061019;28;20518;-68
2023/03/06 03:55:24;;;;;;;1.80;0.80;;;1.90;99.90;;;;;;5064816;28;21189;-67
2023/03/06 03:57:50;;;;;;;1.70;0.50;;;1.90;99.90;;;;;;5063535;28;20415;-69
2023/03/06 04:00:16;;;;;;;0.83;0.40;;;2.00;99.90;;;;;;5065636;28;20977;-68
2023/03/06 04:02:43;;;;;;;0.98;0.52;;;2.10;99.90;;;;;;5063609;28;20416;-68
2023/03/06 04:05:10;;;;;;;1.60;0.60;;;2.00;99.90;;;;;;5064565;28;20419;-68
2023/03/06 04:07:36;;;;;;;1.90;0.60;;;2.20;99.90;;;;;;5064999;28;20427;-68
2023/03/06 04:10:01;;;;;;;1.70;0.50;;;2.10;99.90;;;;;;5060978;28;20420;-68
2023/03/06 04:12:27;;;;;;;1.08;0.70;;;2.20;99.90;;;;;;5062683;28;20498;-68
2023/03/06 04:14:53;;;;;;;0.95;0.50;;;2.10;99.90;;;;;;5065363;28;20424;-68
2023/03/06 04:17:18;;;;;;;2.40;0.57;;;2.10;99.90;;;;;;5063552;28;20438;-69
2023/03/06 04:19:44;;;;;;;1.40;0.60;;;2.20;99.90;;;;;;5064254;28;22238;-69
2023/03/06 04:22:09;;;;;;;1.27;0.65;;;2.20;99.90;;;;;;5064677;28;20450;-68
2023/03/06 04:24:35;;;;;;;1.10;0.60;;;2.30;99.90;;;;;;5065866;28;21211;-68
2023/03/06 04:27:01;;;;;;;2.90;1.15;;;2.40;99.90;;;;;;5064797;28;20916;-69
2023/03/06 04:29:26;;;;;;;1.52;0.40;;;2.40;99.90;;;;;;5059693;28;20424;-68
2023/03/06 04:31:52;;;;;;;0.60;0.43;;;2.30;99.90;;;;;;5063385;28;20435;-69
2023/03/06 04:34:18;;;;;;;2.15;0.57;;;2.50;99.90;;;;;;5060650;28;20477;-69
2023/03/06 04:36:46;;;;;;;1.20;0.50;;;2.30;99.90;;;;;;5061163;28;21161;-67
2023/03/06 04:39:16;;;;;;;1.20;0.60;;;2.40;99.90;;;;;;5059812;28;20434;-69
2023/03/06 04:41:43;;;;;;;1.00;0.60;;;2.40;99.90;;;;;;5065072;28;20423;-68
2023/03/06 04:44:09;;;;;;;1.00;0.53;;;2.30;99.90;;;;;;5065004;28;20423;-68
2023/03/06 04:46:35;;;;;;;2.37;0.63;;;2.30;99.90;;;;;;5044482;28;20439;-68
2023/03/06 04:49:01;;;;;;;1.67;0.68;;;2.50;99.90;;;;;;5064129;28;20422;-68
2023/03/06 04:51:27;;;;;;;3.15;0.82;;;2.40;99.90;;;;;;5060436;28;20423;-68
2023/03/06 04:53:52;;;;;;;4.60;0.80;;;2.40;99.90;;;;;;5057082;28;20424;-68
2023/03/06 04:56:18;;;;;;;4.53;0.80;;;2.30;99.90;;;;;;5060458;28;20864;-69
2023/03/06 04:58:44;;;;;;;2.93;0.73;;;2.30;99.90;;;;;;5063482;28;20428;-68
2023/03/06 05:01:10;;;;;;;2.92;1.05;;;2.20;99.90;;;;;;5063841;28;20458;-70
2023/03/06 05:03:36;;;;;;;1.77;1.07;;;2.10;99.90;;;;;;5062740;28;20423;-68
2023/03/06 05:06:02;;;;;;;2.05;1.48;;;2.10;99.90;;;;;;5051139;28;20431;-69
2023/03/06 05:08:28;;;;;;;1.45;1.00;;;2.00;99.90;;;;;;5064706;28;20551;-69
2023/03/06 05:10:58;;;;;;;2.67;1.10;;;2.10;99.90;;;;;;5064434;28;20431;-68
2023/03/06 05:13:25;;;;;;;2.03;1.30;;;2.10;99.90;;;;;;5065525;28;20759;-68
2023/03/06 05:15:51;;;;;;;2.67;0.90;;;2.20;99.90;;;;;;5068166;28;20411;-68
2023/03/06 05:18:17;;;;;;;2.53;0.80;;;2.20;99.90;;;;;;5068765;28;20426;-68
2023/03/06 05:20:43;;;;;;;2.63;0.90;;;2.30;99.90;;;;;;5068510;28;20430;-69
2023/03/06 05:23:09;;;;;;;2.70;0.98;;;2.30;99.90;;;;;;5062981;28;20428;-69
2023/03/06 05:25:37;;;;;;;2.60;1.10;;;2.40;99.90;;;;;;5068121;28;20477;-68
2023/03/06 05:28:02;;;;;;;3.63;1.10;;;2.20;99.90;;;;;;5069356;28;20897;-67
2023/03/06 05:30:28;;;;;;;3.60;1.40;;;2.20;99.90;;;;;;5067946;28;21165;-68
2023/03/06 05:32:53;;;;;;;3.17;1.30;;;2.00;99.90;;;;;;5069436;28;20438;-69
2023/03/06 05:35:21;;;;;;;2.35;1.05;;;2.00;99.90;;;;;;5066791;28;20503;-68
2023/03/06 05:37:48;;;;;;;1.95;1.60;;;2.00;99.90;;;;;;5067952;28;20778;-68
2023/03/06 05:40:15;;;;;;;2.77;0.80;;;1.90;99.90;;;;;;5069607;28;20469;-68
2023/03/06 05:42:41;;;;;;;2.33;1.10;;;1.80;99.90;;;;;;5064857;28;20430;-69
2023/03/06 05:45:08;;;;;;;2.70;1.00;;;1.90;99.90;;;;;;5065898;28;20521;-68
2023/03/06 05:47:33;;;;;;;1.88;1.20;;;1.90;99.90;;;;;;5066232;28;20427;-68
2023/03/06 05:49:59;;;;;;;2.30;1.13;;;1.80;99.90;;;;;;5068392;28;20457;-69
2023/03/06 05:52:25;;;;;;;5.15;1.92;;;1.80;99.90;;;;;;5065794;28;20510;-68
2023/03/06 05:54:52;;;;;;;4.63;2.30;;;1.80;99.90;;;;;;5063811;28;20459;-70
2023/03/06 05:57:20;;;;;;;5.70;1.88;;;1.60;99.90;;;;;;5065625;28;20419;-67
2023/03/06 05:59:46;;;;;;;4.80;2.10;;;1.60;99.90;;;;;;5067114;28;20428;-67
2023/03/06 06:02:12;;;;;;;3.53;2.22;;;1.40;99.90;;;;;;5062449;28;20422;-67
2023/03/06 06:04:37;;;;;;;3.85;2.17;;;1.60;99.90;;;;;;5067814;28;20771;-68
2023/03/06 06:07:05;;;;;;;4.53;2.63;;;1.40;99.90;;;;;;5063960;28;20423;-68
2023/03/06 06:09:31;;;;;;;4.35;3.20;;;1.40;99.90;;;;;;5064433;28;20434;-70
2023/03/06 06:12:02;;;;;;;4.15;2.90;;;1.50;99.90;;;;;;5066395;28;20428;-68
2023/03/06 06:14:28;;;;;;;4.95;3.30;;;1.50;99.90;;;;;;5068107;28;20503;-69
2023/03/06 06:16:54;;;;;;;4.10;2.67;;;1.40;99.90;;;;;;5063500;28;20445;-68
2023/03/06 06:19:21;;;;;;;5.90;2.40;;;1.30;99.90;;;;;;5066125;28;20431;-68
2023/03/06 06:21:50;;;;;;;3.73;2.13;;;1.30;99.90;;;;;;5061477;28;20642;-69
2023/03/06 06:24:21;;;;;;;5.13;2.80;;;1.30;99.90;;;;;;5068485;28;20432;-68
2023/03/06 06:26:50;;;;;;;11.18;3.53;;;1.20;99.90;;;;;;5062738;28;20422;-68
2023/03/06 06:29:16;;;;;;;3.88;2.60;;;1.20;99.90;;;;;;5063585;28;20431;-67
2023/03/06 06:31:42;;;;;;;6.47;2.80;;;1.10;99.90;;;;;;5063895;28;20450;-69
2023/03/06 06:34:09;;;;;;;3.13;2.78;;;1.00;99.90;;;;;;5065713;28;20699;-68
2023/03/06 06:36:35;;;;;;;4.30;2.80;;;1.10;99.90;;;;;;5060132;28;20821;-68
2023/03/06 06:39:02;;;;;;;4.88;2.95;;;1.10;99.90;;;;;;5063337;28;20423;-68
2023/03/06 06:41:28;;;;;;;5.47;3.30;;;1.30;99.90;;;;;;5065849;28;20431;-69
2023/03/06 06:43:54;;;;;;;6.00;3.75;;;1.40;99.90;;;;;;5065468;28;20506;-68
2023/03/06 06:46:20;;;;;;;6.57;3.77;;;1.40;99.90;;;;;;5065635;28;20503;-67
2023/03/06 06:48:51;;;;;;;5.63;4.72;;;1.50;99.90;;;;;;5062858;28;20469;-68
2023/03/06 06:51:17;;;;;;;6.57;4.35;;;1.60;99.90;;;;;;5064792;28;20432;-68
2023/03/06 06:53:43;;;;;;;6.77;4.60;;;1.60;99.90;;;;;;5064026;28;20431;-68
2023/03/06 06:56:09;;;;;;;7.57;3.97;;;1.40;99.90;;;;;;5063692;28;20473;-67
2023/03/06 06:58:35;;;;;;;5.40;4.20;;;1.50;99.90;;;;;;5045715;28;20450;-67
2023/03/06 07:01:09;;;;;;;8.65;6.72;;;1.60;99.90;;;;;;5064137;28;20905;-68
2023/03/06 07:03:35;;;;;;;10.68;7.60;;;1.50;99.90;;;;;;5061248;28;20467;-68
2023/03/06 07:06:00;;;;;;;21.13;7.03;;;1.60;99.90;;;;;;5060408;28;20472;-68
2023/03/06 07:08:26;;;;;;;11.70;5.97;;;1.40;99.90;;;;;;5044872;28;20462;-68
2023/03/06 07:10:52;;;;;;;11.27;5.77;;;1.40;99.90;;;;;;5066007;28;20415;-69
2023/03/06 07:13:17;;;;;;;7.57;4.68;;;1.50;99.90;;;;;;5072686;28;20796;-69
2023/03/06 07:15:43;;;;;;;5.15;4.43;;;1.50;99.90;;;;;;5065172;28;20419;-69
2023/03/06 07:18:12;;;;;;;5.05;3.97;;;1.50;99.90;;;;;;5066193;28;20427;-69
2023/03/06 07:20:38;;;;;;;3.40;2.92;;;1.60;99.90;;;;;;5066697;28;20913;-69
2023/03/06 07:23:06;;;;;;;5.35;3.70;;;1.70;99.90;;;;;;5047429;28;20477;-69
2023/03/06 07:25:31;;;;;;;4.85;2.92;;;1.90;99.90;;;;;;5065176;28;20469;-69
2023/03/06 07:27:57;;;;;;;3.80;2.97;;;1.80;99.90;;;;;;5065228;28;20909;-68
2023/03/06 07:30:23;;;;;;;3.60;2.63;;;2.00;99.90;;;;;;5071428;28;20495;-69
2023/03/06 07:32:51;;;;;;;5.30;2.40;;;2.10;99.90;;;;;;5082075;28;20438;-69
2023/03/06 07:35:18;;;;;;;4.93;2.10;;;2.20;99.90;;;;;;5048888;28;20447;-69
2023/03/06 07:37:43;;;;;;;5.32;2.22;;;2.10;99.90;;;;;;5048464;28;20511;-69
2023/03/06 07:40:11;;;;;;;2.57;2.10;;;2.40;99.90;;;;;;5064398;28;20498;-68
2023/03/06 07:42:37;;;;;;;4.70;2.28;;;2.40;99.90;;;;;;5059793;28;20542;-69
2023/03/06 07:45:04;;;;;;;4.57;2.30;;;2.60;99.90;;;;;;5057685;28;20985;-69
2023/03/06 07:47:29;;;;;;;3.03;1.67;;;2.50;99.90;;;;;;5055550;28;20425;-68
2023/03/06 07:49:57;;;;;;;3.45;1.63;;;2.70;99.90;;;;;;5042590;28;20787;-68
2023/03/06 07:52:23;;;;;;;4.65;2.40;;;2.80;99.90;;;;;;5044698;28;20803;-68
2023/03/06 07:54:48;;;;;;;3.10;1.90;;;2.60;99.90;;;;;;5061103;28;20434;-68
2023/03/06 07:57:14;;;;;;;3.35;1.95;;;2.80;99.90;;;;;;5044674;28;20823;-69
2023/03/06 07:59:40;;;;;;;4.38;2.00;;;2.90;99.90;;;;;;5061366;28;20442;-68
2023/03/06 08:02:06;;;;;;;3.72;2.00;;;3.10;99.90;;;;;;5029988;28;20429;-68
2023/03/06 08:04:34;;;;;;;5.50;2.17;;;3.10;99.90;;;;;;5058697;28;20786;-68
2023/03/06 08:06:59;;;;;;;3.10;1.90;;;3.40;99.90;;;;;;5046609;28;20508;-68
2023/03/06 08:09:25;;;;;;;3.17;2.15;;;3.50;99.90;;;;;;5066609;28;20424;-67
2023/03/06 08:11:51;;;;;;;5.10;2.30;;;3.40;99.90;;;;;;5063241;28;20423;-68
2023/03/06 08:14:17;;;;;;;3.03;1.60;;;3.40;99.90;;;;;;5060952;28;20827;-68
2023/03/06 08:16:43;;;;;;;2.63;1.63;;;3.60;99.90;;;;;;5063483;28;20517;-67
2023/03/06 08:19:08;;;;;;;3.27;1.57;;;3.50;99.90;;;;;;5062564;28;20521;-68
2023/03/06 08:21:34;;;;;;;3.33;1.50;;;3.40;99.90;;;;;;5064398;28;20420;-69
2023/03/06 08:24:00;;;;;;;3.80;2.00;;;3.60;99.90;;;;;;5062305;28;20420;-69
2023/03/06 08:26:28;;;;;;;4.32;1.75;;;3.60;99.90;;;;;;5064214;28;20975;-67
2023/03/06 08:28:56;;;;;;;2.85;1.50;;;3.50;99.90;;;;;;5045102;28;20420;-69
2023/03/06 08:31:30;;;;;;;4.40;1.92;;;3.40;99.90;;;;;;5061556;28;20411;-68
2023/03/06 08:33:57;;;;;;;6.50;1.70;;;3.60;99.90;;;;;;5061431;28;20566;-69
2023/03/06 08:36:23;;;;;;;6.03;2.53;;;3.40;99.90;;;;;;5060142;28;20428;-68
2023/03/06 08:38:49;;;;;;;3.13;1.63;;;3.60;99.90;;;;;;5050043;28;20420;-69
2023/03/06 08:41:15;;;;;;;5.20;1.20;;;3.40;99.90;;;;;;5063913;28;20501;-69
2023/03/06 08:43:40;;;;;;;4.88;1.58;;;3.60;99.90;;;;;;5055827;28;20457;-69
2023/03/06 08:46:06;;;;;;;1.80;0.90;;;3.60;99.90;;;;;;5038793;28;20473;-68
2023/03/06 08:48:32;;;;;;;3.88;1.15;;;3.80;99.90;;;;;;5059360;28;20423;-67
2023/03/06 08:50:58;;;;;;;4.53;1.07;;;3.90;99.90;;;;;;5046380;28;20593;-69
2023/03/06 08:53:24;;;;;;;4.53;1.08;;;4.00;99.90;;;;;;5067188;28;20464;-69
2023/03/06 08:55:50;;;;;;;2.25;1.00;;;4.00;99.90;;;;;;5059924;28;20502;-68
2023/03/06 08:58:16;;;;;;;5.20;0.90;;;4.20;99.90;;;;;;5060183;28;20503;-68
2023/03/06 09:00:42;;;;;;;2.27;0.87;;;4.10;99.90;;;;;;5054110;28;20524;-68
2023/03/06 09:03:07;;;;;;;2.67;0.63;;;4.10;99.90;;;;;;5060877;28;20435;-68
2023/03/06 09:05:33;;;;;;;6.93;1.00;;;4.30;99.90;;;;;;5042078;28;20544;-69
2023/03/06 09:07:58;;;;;;;4.50;0.90;;;4.30;99.90;;;;;;5064832;28;20552;-68
2023/03/06 09:10:25;;;;;;;4.87;1.10;;;4.40;99.90;;;;;;5068582;28;20415;-68
2023/03/06 09:12:52;;;;;;;2.38;0.70;;;4.40;99.90;;;;;;5070180;28;20451;-69
2023/03/06 09:15:19;;;;;;;5.45;1.45;;;4.60;99.90;;;;;;5065911;28;20428;-69
2023/03/06 09:17:46;;;;;;;5.78;1.05;;;4.70;99.90;;;;;;5068806;28;20462;-68
2023/03/06 09:20:13;;;;;;;3.50;0.77;;;4.70;99.90;;;;;;5066091;28;20922;-69
2023/03/06 09:22:41;;;;;;;3.10;0.90;;;4.90;99.90;;;;;;5049206;28;20430;-69
2023/03/06 09:25:08;;;;;;;4.00;0.80;;;5.00;99.90;;;;;;5048850;28;20442;-68
2023/03/06 09:27:35;;;;;;;3.58;1.10;;;5.20;99.90;;;;;;5062927;28;20428;-69
2023/03/06 09:30:00;;;;;;;4.30;0.80;;;5.10;99.90;;;;;;5050027;28;20488;-69
2023/03/06 09:32:26;;;;;;;7.07;0.75;;;5.30;99.90;;;;;;5068906;28;20423;-69
2023/03/06 09:34:51;;;;;;;2.00;0.60;;;5.20;99.90;;;;;;5069456;28;20955;-69
2023/03/06 09:37:17;;;;;;;4.45;0.88;;;5.30;99.90;;;;;;5064879;28;20790;-67
2023/03/06 09:39:43;;;;;;;3.75;0.70;;;5.40;99.90;;;;;;5066516;28;20435;-68
2023/03/06 09:42:17;;;;;;;4.00;0.77;;;5.30;99.90;;;;;;5064023;28;20474;-67
2023/03/06 09:44:49;;;;;;;4.32;1.40;;;5.30;99.90;;;;;;5061110;28;20415;-68
2023/03/06 09:47:44;;;;;;;3.70;1.10;;;5.30;99.90;;;;;;5057801;28;20431;-68
2023/03/06 09:50:41;;;;;;;3.40;1.00;;;5.40;99.90;;;;;;5059397;28;20432;-68
2023/03/06 09:53:31;;;;;;;2.63;1.10;;;5.70;99.90;;;;;;5063664;28;20893;-68
2023/03/06 09:56:12;;;;;;;3.97;0.52;;;5.90;99.90;;;;;;5065344;28;20503;-68
2023/03/06 09:58:46;;;;;;;3.63;0.80;;;5.90;99.90;;;;;;5062048;28;20420;-68
2023/03/06 10:01:26;;;;;;;4.85;0.70;;;6.30;99.90;;;;;;5059697;28;20506;-68
2023/03/06 10:04:20;;;;;;;4.82;0.70;;;6.30;99.90;;;;;;5065868;28;20514;-68
2023/03/06 10:06:49;;;;;;;1.75;1.00;;;6.30;99.90;;;;;;5064679;28;20424;-68
2023/03/06 10:09:40;;;;;;;3.63;0.77;;;6.10;99.90;;;;;;5064735;28;20431;-68
2023/03/06 10:12:21;;;;;;;3.53;0.98;;;5.60;99.90;;;;;;5066479;28;20450;-69
2023/03/06 10:15:18;;;;;;;4.25;0.70;;;5.60;99.90;;;;;;5052711;28;20457;-69
2023/03/06 10:17:44;;;;;;;3.25;0.75;;;5.50;99.90;;;;;;5062311;28;20424;-68
2023/03/06 10:20:24;;;;;;;3.38;1.13;;;5.50;99.90;;;;;;5062290;28;22132;-68
2023/03/06 10:23:20;;;;;;;2.90;1.10;;;5.60;99.90;;;;;;5061107;28;20507;-68
2023/03/06 10:25:55;;;;;;;2.40;1.17;;;5.70;99.90;;;;;;5060192;28;20429;-68
2023/03/06 10:28:44;;;;;;;4.20;0.60;;;5.50;99.90;;;;;;5063556;28;20427;-69
2023/03/06 10:31:25;;;;;;;2.22;0.70;;;5.80;99.90;;;;;;5046423;28;22509;-67
2023/03/06 10:34:02;;;;;;;2.70;0.80;;;5.60;99.90;;;;;;5046690;28;20438;-68
2023/03/06 10:36:28;;;;;;;5.95;1.73;;;5.40;99.90;;;;;;5047785;28;20424;-69
2023/03/06 10:38:56;;;;;;;2.30;0.60;;;5.30;99.90;;;;;;5056016;28;20418;-68
2023/03/06 10:41:31;;;;;;;7.47;1.90;;;5.30;99.90;;;;;;5060699;28;20442;-68
2023/03/06 10:43:59;;;;;;;3.55;0.52;;;5.10;99.90;;;;;;5056886;28;20427;-69
2023/03/06 10:46:28;;;;;;;3.05;0.50;;;5.30;99.90;;;;;;5059115;28;20437;-68
2023/03/06 10:49:00;;;;;;;3.92;1.08;;;5.50;99.90;;;;;;5062381;28;20430;-67
2023/03/06 10:51:27;;;;;;;1.30;0.40;;;5.40;99.90;;;;;;5058618;28;20423;-68
2023/03/06 10:53:55;;;;;;;3.50;0.82;;;5.50;99.90;;;;;;5055834;28;20435;-69
2023/03/06 10:56:29;;;;;;;4.40;0.55;;;5.50;99.90;;;;;;5058568;28;20415;-68
2023/03/06 10:59:17;;;;;;;3.33;0.93;;;5.50;99.90;;;;;;5059132;28;20517;-69
2023/03/06 11:01:46;;;;;;;5.18;0.80;;;5.40;99.90;;;;;;5061937;28;20451;-68
2023/03/06 11:04:35;;;;;;;3.67;0.52;;;5.40;99.90;;;;;;5048895;28;20527;-68
2023/03/06 11:07:19;;;;;;;4.80;0.70;;;5.50;99.90;;;;;;5074968;28;20441;-68
2023/03/06 11:09:56;;;;;;;2.95;0.70;;;5.40;99.90;;;;;;5068231;28;21033;-68
2023/03/06 11:12:26;;;;;;;4.03;0.50;;;5.30;99.90;;;;;;5068914;28;20423;-68
2023/03/06 11:15:20;;;;;;;3.03;0.67;;;5.00;99.90;;;;;;5079232;28;20433;-68
2023/03/06 11:17:56;;;;;;;6.55;1.20;;;5.10;99.90;;;;;;5064813;28;20456;-68
2023/03/06 11:20:54;;;;;;;3.70;0.77;;;5.30;99.90;;;;;;5076777;28;20463;-68
2023/03/06 11:23:37;;;;;;;4.55;0.80;;;5.40;99.90;;;;;;5038278;28;20429;-68
2023/03/06 11:26:15;;;;;;;4.10;0.50;;;5.40;99.90;;;;;;5048144;28;20421;-68
2023/03/06 11:28:46;;;;;;;2.72;0.65;;;5.30;99.90;;;;;;5059966;28;20432;-68
2023/03/06 11:31:17;;;;;;;2.83;0.47;;;5.30;99.90;;;;;;5082275;28;20427;-68
2023/03/06 11:33:55;;;;;;;2.30;0.50;;;5.40;99.90;;;;;;5067585;28;21205;-68
2023/03/06 11:36:38;;;;;;;1.38;0.40;;;5.50;99.90;;;;;;5065387;28;20506;-70
2023/03/06 11:39:23;;;;;;;2.92;0.80;;;5.70;99.90;;;;;;5067103;28;20434;-69
2023/03/06 11:41:51;;;;;;;2.80;0.80;;;5.70;99.90;;;;;;5065532;28;20406;-70
2023/03/06 11:44:26;;;;;;;1.42;0.50;;;5.90;99.90;;;;;;5072294;28;20441;-68
2023/03/06 11:47:08;;;;;;;1.33;0.35;;;6.30;99.90;;;;;;5075575;28;20504;-69
2023/03/06 11:50:13;;;;;;;0.93;0.30;;;6.30;99.90;;;;;;5059005;28;20415;-69
2023/03/06 11:53:00;;;;;;;3.57;0.60;;;6.20;99.90;;;;;;5027746;28;20501;-69
2023/03/06 11:55:43;;;;;;;2.50;0.40;;;6.30;99.90;;;;;;5066826;28;20506;-69
2023/03/06 11:58:39;;;;;;;2.30;0.70;;;6.30;99.90;;;;;;5060022;28;20423;-69
2023/03/06 12:01:38;;;;;;;1.77;0.60;;;6.20;99.90;;;;;;5060916;28;20421;-69
2023/03/06 12:04:25;;;;;;;2.30;0.80;;;6.10;99.90;;;;;;5078816;28;20437;-69
2023/03/06 12:07:03;;;;;;;1.73;0.40;;;6.30;99.90;;;;;;5086019;28;20409;-70
2023/03/06 12:09:42;;;;;;;2.25;0.30;;;6.30;99.90;;;;;;5074090;28;20438;-69
2023/03/06 12:12:29;;;;;;;3.60;0.40;;;6.40;99.90;;;;;;5077370;28;20460;-70
2023/03/06 12:15:27;;;;;;;3.03;0.40;;;6.30;99.90;;;;;;5064830;28;20477;-69
2023/03/06 12:18:12;;;;;;;1.83;0.95;;;6.40;99.90;;;;;;5034441;28;20428;-70
2023/03/06 12:21:24;;;;;;;1.75;0.52;;;6.30;99.90;;;;;;5067230;28;21437;-69
2023/03/06 12:24:41;;;;;;;2.80;0.40;;;6.50;99.90;;;;;;5021767;28;20867;-69
2023/03/06 12:27:50;;;;;;;5.20;0.93;;;6.60;99.90;;;;;;5055183;28;20439;-69
2023/03/06 12:30:28;;;;;;;1.92;0.47;;;6.40;99.90;;;;;;5020464;28;20464;-69
2023/03/06 12:33:08;;;;;;;1.50;0.20;;;6.70;99.90;;;;;;5013508;28;20538;-69
2023/03/06 12:36:07;;;;;;;3.08;0.47;;;6.70;99.90;;;;;;5049823;28;20432;-69
2023/03/06 12:38:45;;;;;;;0.90;0.30;;;6.60;99.90;;;;;;5063768;28;20430;-69
2023/03/06 12:41:29;;;;;;;3.08;0.43;;;6.90;99.90;;;;;;5066985;28;20423;-70
2023/03/06 12:44:19;;;;;;;2.30;0.70;;;7.10;99.90;;;;;;5067620;28;20451;-68
2023/03/06 12:47:02;;;;;;;1.70;0.40;;;7.20;99.90;;;;;;5069640;28;20510;-68
2023/03/06 12:49:30;;;;;;;2.22;0.32;;;7.20;99.90;;;;;;5068166;28;20415;-68
2023/03/06 12:51:58;;;;;;;1.23;0.45;;;7.30;99.90;;;;;;5067543;28;20411;-68
2023/03/06 12:54:33;;;;;;;3.30;0.52;;;7.20;99.90;;;;;;5067959;28;20436;-69
2023/03/06 12:56:59;;;;;;;2.75;0.30;;;7.30;99.90;;;;;;5068735;28;20465;-69
2023/03/06 12:59:43;;;;;;;1.95;0.40;;;7.30;99.90;;;;;;5066943;28;20427;-69
2023/03/06 13:02:43;;;;;;;2.80;0.80;;;7.50;99.90;;;;;;5069523;28;20507;-68
2023/03/06 13:05:20;;;;;;;1.80;0.30;;;7.70;99.90;;;;;;5068567;28;21425;-68
2023/03/06 13:07:49;;;;;;;3.53;0.43;;;7.50;99.90;;;;;;5066155;28;20439;-69
2023/03/06 13:10:25;;;;;;;3.30;0.50;;;7.60;99.90;;;;;;5068352;28;20435;-68
2023/03/06 13:13:00;;;;;;;2.10;0.80;;;7.50;99.90;;;;;;5051332;28;20438;-69
2023/03/06 13:15:45;;;;;;;2.83;0.50;;;7.50;99.90;;;;;;5069509;28;20416;-67
2023/03/06 13:18:23;;;;;;;3.10;0.80;;;7.50;99.90;;;;;;5066664;28;20430;-69
2023/03/06 13:20:53;;;;;;;1.00;0.40;;;7.50;99.90;;;;;;5060798;28;20417;-69
2023/03/06 13:23:34;;;;;;;3.25;0.47;;;7.40;99.90;;;;;;5051716;28;20424;-70
2023/03/06 13:26:20;;;;;;;2.88;0.70;;;7.40;99.90;;;;;;5077331;28;20983;-69
2023/03/06 13:28:49;;;;;;;2.03;0.40;;;7.60;99.90;;;;;;5022817;28;20443;-69
2023/03/06 13:31:27;;;;;;;3.13;0.40;;;7.50;99.90;;;;;;5050509;28;20416;-69
2023/03/06 13:33:56;;;;;;;1.90;0.47;;;7.30;99.90;;;;;;5053742;28;20436;-69